Terminal Aerodrome Forecast
Issued by NWS Los Angeles, CA

Home | Current Version | Previous Version | Text Only | Print | Product List | Glossary On
Versions: 1 2 3 4 5 6 7 8 9 10 11 12 13 14 15 16 17 18 19 20 21 22 23 24 25 26
000
FTUS46 KLOX 291700 AAA
TAFSMX
TAF AMD
KSMX 291759Z 2918/3018 VRB05KT P6SM SCT008
     FM292000 30010KT P6SM SCT008
     FM300400 VRB03KT P6SM BKN005
     FM300800 VRB03KT 2SM BR OVC003
     FM301200 VRB03KT 1/4SM FG VV002
     FM301530 VRB03KT 2SM BR BKN005=

USA.gov is the U.S. government's official web portal to all federal, state and local government web resources and services.